sensor_id;sensor_type;location;lat;lon;timestamp;P1;durP1;ratioP1;P2;durP2;ratioP2
56413;SDS011;42318;48.452;19.526;2023-02-28T00:05:30;7.90;;;2.87;;
56413;SDS011;42318;48.452;19.526;2023-02-28T00:13:05;6.80;;;2.95;;
56413;SDS011;42318;48.452;19.526;2023-02-28T00:20:37;5.68;;;3.38;;
56413;SDS011;42318;48.452;19.526;2023-02-28T00:28:08;6.50;;;3.08;;
56413;SDS011;42318;48.452;19.526;2023-02-28T00:35:38;6.90;;;3.05;;
56413;SDS011;42318;48.452;19.526;2023-02-28T00:43:10;6.25;;;3.00;;
56413;SDS011;42318;48.452;19.526;2023-02-28T00:50:40;6.90;;;2.92;;
56413;SDS011;42318;48.452;19.526;2023-02-28T00:58:11;6.85;;;2.80;;
56413;SDS011;42318;48.452;19.526;2023-02-28T01:05:42;6.03;;;2.75;;
56413;SDS011;42318;48.452;19.526;2023-02-28T01:13:13;7.07;;;3.05;;
56413;SDS011;42318;48.452;19.526;2023-02-28T01:20:44;7.35;;;3.20;;
56413;SDS011;42318;48.452;19.526;2023-02-28T01:28:16;6.18;;;3.40;;
56413;SDS011;42318;48.452;19.526;2023-02-28T01:35:47;4.47;;;2.88;;
56413;SDS011;42318;48.452;19.526;2023-02-28T01:43:25;4.75;;;3.33;;
56413;SDS011;42318;48.452;19.526;2023-02-28T01:50:59;5.93;;;2.97;;
56413;SDS011;42318;48.452;19.526;2023-02-28T01:58:34;6.03;;;3.10;;
56413;SDS011;42318;48.452;19.526;2023-02-28T02:06:06;4.23;;;2.80;;
56413;SDS011;42318;48.452;19.526;2023-02-28T02:44:52;7.55;;;4.07;;
56413;SDS011;42318;48.452;19.526;2023-02-28T02:52:34;5.75;;;3.20;;
56413;SDS011;42318;48.452;19.526;2023-02-28T03:00:09;6.68;;;3.20;;
56413;SDS011;42318;48.452;19.526;2023-02-28T03:07:43;6.30;;;3.50;;
56413;SDS011;42318;48.452;19.526;2023-02-28T03:15:17;5.95;;;3.22;;
56413;SDS011;42318;48.452;19.526;2023-02-28T03:23:07;6.07;;;3.60;;
56413;SDS011;42318;48.452;19.526;2023-02-28T03:30:57;4.88;;;2.85;;
56413;SDS011;42318;48.452;19.526;2023-02-28T03:38:38;4.68;;;3.10;;
56413;SDS011;42318;48.452;19.526;2023-02-28T03:46:16;5.18;;;3.33;;
56413;SDS011;42318;48.452;19.526;2023-02-28T03:53:53;5.50;;;3.15;;
56413;SDS011;42318;48.452;19.526;2023-02-28T04:01:38;6.07;;;3.72;;
56413;SDS011;42318;48.452;19.526;2023-02-28T04:09:15;5.53;;;3.90;;
56413;SDS011;42318;48.452;19.526;2023-02-28T04:16:45;3.95;;;2.60;;
56413;SDS011;42318;48.452;19.526;2023-02-28T04:24:17;6.10;;;3.55;;
56413;SDS011;42318;48.452;19.526;2023-02-28T04:31:50;4.45;;;3.05;;
56413;SDS011;42318;48.452;19.526;2023-02-28T04:39:23;5.03;;;2.97;;
56413;SDS011;42318;48.452;19.526;2023-02-28T04:54:26;3.63;;;2.70;;
56413;SDS011;42318;48.452;19.526;2023-02-28T05:01:58;4.47;;;3.20;;
56413;SDS011;42318;48.452;19.526;2023-02-28T05:09:29;5.15;;;3.35;;
56413;SDS011;42318;48.452;19.526;2023-02-28T05:17:00;5.15;;;3.15;;
56413;SDS011;42318;48.452;19.526;2023-02-28T05:24:31;4.68;;;3.08;;
56413;SDS011;42318;48.452;19.526;2023-02-28T05:32:01;5.22;;;3.08;;
56413;SDS011;42318;48.452;19.526;2023-02-28T05:39:32;4.90;;;3.15;;
56413;SDS011;42318;48.452;19.526;2023-02-28T05:47:03;4.85;;;3.13;;
56413;SDS011;42318;48.452;19.526;2023-02-28T05:54:34;6.22;;;3.47;;
56413;SDS011;42318;48.452;19.526;2023-02-28T06:02:06;5.85;;;3.20;;
56413;SDS011;42318;48.452;19.526;2023-02-28T06:09:41;4.90;;;3.75;;
56413;SDS011;42318;48.452;19.526;2023-02-28T06:17:11;5.22;;;3.70;;
56413;SDS011;42318;48.452;19.526;2023-02-28T06:24:42;4.95;;;3.75;;
56413;SDS011;42318;48.452;19.526;2023-02-28T06:32:13;5.63;;;3.85;;
56413;SDS011;42318;48.452;19.526;2023-02-28T06:39:44;4.95;;;3.30;;
56413;SDS011;42318;48.452;19.526;2023-02-28T06:47:15;5.72;;;3.85;;
56413;SDS011;42318;48.452;19.526;2023-02-28T06:54:46;5.07;;;3.42;;
56413;SDS011;42318;48.452;19.526;2023-02-28T07:02:16;4.90;;;3.78;;
56413;SDS011;42318;48.452;19.526;2023-02-28T07:09:47;7.43;;;4.53;;
56413;SDS011;42318;48.452;19.526;2023-02-28T07:17:18;5.07;;;4.03;;
56413;SDS011;42318;48.452;19.526;2023-02-28T07:24:49;5.25;;;3.97;;
56413;SDS011;42318;48.452;19.526;2023-02-28T07:32:20;6.20;;;4.53;;
56413;SDS011;42318;48.452;19.526;2023-02-28T07:39:51;6.47;;;4.53;;
56413;SDS011;42318;48.452;19.526;2023-02-28T07:47:22;7.55;;;5.10;;
56413;SDS011;42318;48.452;19.526;2023-02-28T07:54:53;7.63;;;5.07;;
56413;SDS011;42318;48.452;19.526;2023-02-28T08:02:24;8.52;;;5.28;;
56413;SDS011;42318;48.452;19.526;2023-02-28T08:09:55;7.13;;;4.85;;
56413;SDS011;42318;48.452;19.526;2023-02-28T08:17:26;7.45;;;5.03;;
56413;SDS011;42318;48.452;19.526;2023-02-28T08:24:56;7.05;;;5.18;;
56413;SDS011;42318;48.452;19.526;2023-02-28T08:32:27;8.43;;;5.28;;
56413;SDS011;42318;48.452;19.526;2023-02-28T08:39:58;7.20;;;4.65;;
56413;SDS011;42318;48.452;19.526;2023-02-28T08:47:29;6.72;;;5.03;;
56413;SDS011;42318;48.452;19.526;2023-02-28T08:54:59;6.88;;;4.97;;
56413;SDS011;42318;48.452;19.526;2023-02-28T09:02:31;6.65;;;4.93;;
56413;SDS011;42318;48.452;19.526;2023-02-28T09:10:02;6.93;;;4.63;;
56413;SDS011;42318;48.452;19.526;2023-02-28T09:17:32;7.47;;;4.53;;
56413;SDS011;42318;48.452;19.526;2023-02-28T09:25:03;8.55;;;5.10;;
56413;SDS011;42318;48.452;19.526;2023-02-28T09:32:34;11.20;;;4.97;;
56413;SDS011;42318;48.452;19.526;2023-02-28T09:40:06;7.60;;;4.78;;
56413;SDS011;42318;48.452;19.526;2023-02-28T09:47:38;7.43;;;4.90;;
56413;SDS011;42318;48.452;19.526;2023-02-28T09:55:25;7.65;;;4.93;;
56413;SDS011;42318;48.452;19.526;2023-02-28T10:03:30;6.47;;;4.45;;
56413;SDS011;42318;48.452;19.526;2023-02-28T10:11:07;7.15;;;4.45;;
56413;SDS011;42318;48.452;19.526;2023-02-28T10:18:56;10.63;;;5.57;;
56413;SDS011;42318;48.452;19.526;2023-02-28T10:26:32;11.75;;;5.20;;
56413;SDS011;42318;48.452;19.526;2023-02-28T10:34:03;13.20;;;5.83;;
56413;SDS011;42318;48.452;19.526;2023-02-28T10:41:36;10.23;;;5.40;;
56413;SDS011;42318;48.452;19.526;2023-02-28T10:49:23;10.07;;;5.60;;
56413;SDS011;42318;48.452;19.526;2023-02-28T11:04:56;9.50;;;5.63;;
56413;SDS011;42318;48.452;19.526;2023-02-28T11:12:39;9.07;;;5.60;;
56413;SDS011;42318;48.452;19.526;2023-02-28T11:20:18;10.10;;;4.78;;
56413;SDS011;42318;48.452;19.526;2023-02-28T11:28:06;7.40;;;4.97;;
56413;SDS011;42318;48.452;19.526;2023-02-28T11:36:01;6.28;;;4.32;;
56413;SDS011;42318;48.452;19.526;2023-02-28T11:51:15;11.13;;;5.40;;
56413;SDS011;42318;48.452;19.526;2023-02-28T12:30:21;8.88;;;5.45;;
56413;SDS011;42318;48.452;19.526;2023-02-28T12:38:03;8.38;;;4.93;;
56413;SDS011;42318;48.452;19.526;2023-02-28T13:08:59;9.75;;;5.22;;
56413;SDS011;42318;48.452;19.526;2023-02-28T13:24:43;9.27;;;5.10;;
56413;SDS011;42318;48.452;19.526;2023-02-28T13:32:31;9.45;;;5.50;;
56413;SDS011;42318;48.452;19.526;2023-02-28T14:10:50;9.75;;;4.50;;
56413;SDS011;42318;48.452;19.526;2023-02-28T14:18:36;9.45;;;5.55;;
56413;SDS011;42318;48.452;19.526;2023-02-28T14:41:37;7.03;;;4.28;;
56413;SDS011;42318;48.452;19.526;2023-02-28T14:49:13;8.95;;;5.15;;
56413;SDS011;42318;48.452;19.526;2023-02-28T14:56:49;7.43;;;4.85;;
56413;SDS011;42318;48.452;19.526;2023-02-28T15:04:25;8.40;;;5.00;;
56413;SDS011;42318;48.452;19.526;2023-02-28T15:11:57;9.55;;;5.30;;
56413;SDS011;42318;48.452;19.526;2023-02-28T15:19:32;6.80;;;4.88;;
56413;SDS011;42318;48.452;19.526;2023-02-28T15:27:07;8.32;;;5.18;;
56413;SDS011;42318;48.452;19.526;2023-02-28T15:34:46;8.40;;;5.38;;
56413;SDS011;42318;48.452;19.526;2023-02-28T15:42:18;9.88;;;5.22;;
56413;SDS011;42318;48.452;19.526;2023-02-28T15:50:05;9.45;;;5.32;;
56413;SDS011;42318;48.452;19.526;2023-02-28T15:57:42;7.53;;;4.97;;
56413;SDS011;42318;48.452;19.526;2023-02-28T16:05:23;9.57;;;5.32;;
56413;SDS011;42318;48.452;19.526;2023-02-28T16:13:01;7.50;;;4.97;;
56413;SDS011;42318;48.452;19.526;2023-02-28T16:20:32;7.10;;;4.27;;
56413;SDS011;42318;48.452;19.526;2023-02-28T16:28:03;7.03;;;4.60;;
56413;SDS011;42318;48.452;19.526;2023-02-28T16:35:38;8.02;;;4.78;;
56413;SDS011;42318;48.452;19.526;2023-02-28T16:43:12;8.73;;;4.90;;
56413;SDS011;42318;48.452;19.526;2023-02-28T16:50:46;6.72;;;4.63;;
56413;SDS011;42318;48.452;19.526;2023-02-28T16:58:17;8.82;;;4.40;;
56413;SDS011;42318;48.452;19.526;2023-02-28T17:05:49;8.65;;;4.57;;
56413;SDS011;42318;48.452;19.526;2023-02-28T17:13:20;7.20;;;4.68;;
56413;SDS011;42318;48.452;19.526;2023-02-28T17:20:51;7.55;;;4.35;;
56413;SDS011;42318;48.452;19.526;2023-02-28T17:28:21;6.95;;;4.47;;
56413;SDS011;42318;48.452;19.526;2023-02-28T17:35:52;6.80;;;4.22;;
56413;SDS011;42318;48.452;19.526;2023-02-28T17:43:24;6.70;;;4.25;;
56413;SDS011;42318;48.452;19.526;2023-02-28T17:58:26;5.70;;;4.07;;
56413;SDS011;42318;48.452;19.526;2023-02-28T18:05:57;6.93;;;4.10;;
56413;SDS011;42318;48.452;19.526;2023-02-28T18:13:28;5.97;;;3.90;;
56413;SDS011;42318;48.452;19.526;2023-02-28T18:20:59;5.70;;;4.30;;
56413;SDS011;42318;48.452;19.526;2023-02-28T18:28:31;5.75;;;3.83;;
56413;SDS011;42318;48.452;19.526;2023-02-28T18:36:04;6.05;;;3.95;;
56413;SDS011;42318;48.452;19.526;2023-02-28T18:43:36;6.53;;;4.03;;
56413;SDS011;42318;48.452;19.526;2023-02-28T18:51:14;6.88;;;4.30;;
56413;SDS011;42318;48.452;19.526;2023-02-28T18:58:47;5.63;;;4.13;;
56413;SDS011;42318;48.452;19.526;2023-02-28T19:06:19;5.47;;;3.55;;
56413;SDS011;42318;48.452;19.526;2023-02-28T19:13:49;5.95;;;3.67;;
56413;SDS011;42318;48.452;19.526;2023-02-28T19:21:21;6.22;;;3.90;;
56413;SDS011;42318;48.452;19.526;2023-02-28T19:28:53;6.55;;;4.00;;
56413;SDS011;42318;48.452;19.526;2023-02-28T19:36:23;5.07;;;3.58;;
56413;SDS011;42318;48.452;19.526;2023-02-28T19:43:54;7.03;;;4.68;;
56413;SDS011;42318;48.452;19.526;2023-02-28T19:51:25;6.53;;;4.10;;
56413;SDS011;42318;48.452;19.526;2023-02-28T19:58:57;6.32;;;3.88;;
56413;SDS011;42318;48.452;19.526;2023-02-28T20:06:27;5.65;;;3.25;;
56413;SDS011;42318;48.452;19.526;2023-02-28T20:14:01;4.95;;;3.65;;
56413;SDS011;42318;48.452;19.526;2023-02-28T20:21:34;6.22;;;3.63;;
56413;SDS011;42318;48.452;19.526;2023-02-28T20:29:06;5.95;;;3.25;;
56413;SDS011;42318;48.452;19.526;2023-02-28T20:36:37;6.20;;;3.20;;
56413;SDS011;42318;48.452;19.526;2023-02-28T20:44:10;4.25;;;3.10;;
56413;SDS011;42318;48.452;19.526;2023-02-28T20:51:42;10.52;;;3.20;;
56413;SDS011;42318;48.452;19.526;2023-02-28T20:59:13;4.82;;;2.90;;
56413;SDS011;42318;48.452;19.526;2023-02-28T21:06:43;4.18;;;3.30;;
56413;SDS011;42318;48.452;19.526;2023-02-28T21:14:16;4.25;;;2.92;;
56413;SDS011;42318;48.452;19.526;2023-02-28T21:21:47;5.15;;;3.38;;
56413;SDS011;42318;48.452;19.526;2023-02-28T21:29:18;4.15;;;2.95;;
56413;SDS011;42318;48.452;19.526;2023-02-28T21:36:49;5.13;;;3.15;;
56413;SDS011;42318;48.452;19.526;2023-02-28T21:44:20;6.22;;;3.30;;
56413;SDS011;42318;48.452;19.526;2023-02-28T21:51:52;4.73;;;3.23;;
56413;SDS011;42318;48.452;19.526;2023-02-28T21:59:22;6.07;;;3.58;;
56413;SDS011;42318;48.452;19.526;2023-02-28T22:06:54;12.45;;;4.90;;
56413;SDS011;42318;48.452;19.526;2023-02-28T22:14:26;8.32;;;5.18;;
56413;SDS011;42318;48.452;19.526;2023-02-28T22:21:57;9.68;;;5.20;;
56413;SDS011;42318;48.452;19.526;2023-02-28T22:29:28;6.68;;;4.80;;
56413;SDS011;42318;48.452;19.526;2023-02-28T22:36:59;8.65;;;5.57;;
56413;SDS011;42318;48.452;19.526;2023-02-28T22:44:30;7.82;;;5.22;;
56413;SDS011;42318;48.452;19.526;2023-02-28T22:52:00;7.97;;;5.28;;
56413;SDS011;42318;48.452;19.526;2023-02-28T22:59:31;9.70;;;5.32;;
56413;SDS011;42318;48.452;19.526;2023-02-28T23:07:02;10.00;;;6.00;;
56413;SDS011;42318;48.452;19.526;2023-02-28T23:14:34;11.25;;;6.28;;
56413;SDS011;42318;48.452;19.526;2023-02-28T23:22:04;9.55;;;6.15;;
56413;SDS011;42318;48.452;19.526;2023-02-28T23:29:35;10.00;;;6.25;;
56413;SDS011;42318;48.452;19.526;2023-02-28T23:37:06;9.93;;;5.95;;
56413;SDS011;42318;48.452;19.526;2023-02-28T23:44:37;10.40;;;6.20;;
56413;SDS011;42318;48.452;19.526;2023-02-28T23:52:08;11.35;;;6.45;;
56413;SDS011;42318;48.452;19.526;2023-02-28T23:59:39;16.60;;;8.70;;
